createdAt,value
2023-02-26T00:02:00.190Z,1.65
2023-02-26T00:07:22.076Z,1.47
2023-02-26T00:12:44.458Z,1.33
2023-02-26T00:18:09.615Z,1.41
2023-02-26T00:23:31.645Z,1.21
2023-02-26T00:28:53.949Z,1.48
2023-02-26T00:34:16.109Z,1.09
2023-02-26T00:39:51.295Z,1.36
2023-02-26T00:45:14.046Z,1.40
2023-02-26T00:50:37.778Z,1.42
2023-02-26T00:55:59.602Z,1.22
2023-02-26T01:01:21.472Z,1.15
2023-02-26T01:06:49.001Z,1.09
2023-02-26T01:12:12.217Z,0.96
2023-02-26T01:17:41.687Z,1.11
2023-02-26T01:23:08.717Z,0.84
2023-02-26T01:28:30.860Z,0.90
2023-02-26T01:34:14.346Z,0.96
2023-02-26T01:40:15.187Z,0.96
2023-02-26T01:45:55.272Z,0.73
2023-02-26T01:51:18.561Z,0.83
2023-02-26T01:56:43.637Z,0.87
2023-02-26T02:02:08.456Z,0.89
2023-02-26T02:07:30.410Z,0.96
2023-02-26T02:13:12.387Z,0.84
2023-02-26T02:18:54.449Z,0.62
2023-02-26T02:24:37.891Z,0.77
2023-02-26T02:30:25.783Z,0.85
2023-02-26T02:35:56.244Z,0.63
2023-02-26T02:41:28.299Z,0.61
2023-02-26T02:46:54.481Z,0.49
2023-02-26T02:52:19.080Z,0.71
2023-02-26T02:57:47.677Z,0.71
2023-02-26T03:03:15.898Z,0.85
2023-02-26T03:08:41.832Z,0.79
2023-02-26T03:14:04.589Z,0.56
2023-02-26T03:19:50.998Z,0.78
2023-02-26T03:25:19.270Z,0.95
2023-02-26T03:30:59.991Z,0.75
2023-02-26T03:36:33.055Z,0.80
2023-02-26T03:42:06.711Z,0.75
2023-02-26T03:47:30.747Z,0.77
2023-02-26T03:52:54.609Z,0.82
2023-02-26T03:58:16.976Z,0.67
2023-02-26T04:03:45.547Z,0.77
2023-02-26T04:09:07.854Z,0.71
2023-02-26T04:14:29.796Z,0.73
2023-02-26T04:19:51.647Z,0.82
2023-02-26T04:25:13.610Z,1.02
2023-02-26T04:30:35.501Z,0.82
2023-02-26T04:35:57.695Z,0.71
2023-02-26T04:41:19.620Z,0.73
2023-02-26T04:46:41.479Z,0.82
2023-02-26T04:52:03.558Z,0.61
2023-02-26T04:57:25.711Z,0.68
2023-02-26T05:02:47.579Z,0.59
2023-02-26T05:08:09.678Z,0.56
2023-02-26T05:13:31.494Z,0.44
2023-02-26T05:18:53.343Z,0.53
2023-02-26T05:24:15.964Z,0.59
2023-02-26T05:29:37.882Z,0.60
2023-02-26T05:34:59.780Z,0.57
2023-02-26T05:40:21.673Z,0.58
2023-02-26T05:45:43.521Z,0.61
2023-02-26T05:51:05.566Z,0.50
2023-02-26T05:56:27.617Z,0.43
2023-02-26T06:01:49.566Z,0.27
2023-02-26T06:07:11.576Z,-0.01
2023-02-26T06:12:33.386Z,0.06
2023-02-26T06:17:55.220Z,0.24
2023-02-26T06:23:17.075Z,0.12
2023-02-26T06:28:39.032Z,-0.12
2023-02-26T06:34:01.082Z,-0.14
2023-02-26T06:39:23.162Z,-0.08
2023-02-26T06:44:45.075Z,-0.01
2023-02-26T06:50:08.117Z,-0.09
2023-02-26T06:55:29.985Z,-0.20
2023-02-26T07:00:51.928Z,-0.08
2023-02-26T07:06:26.935Z,0.10
2023-02-26T07:11:49.074Z,0.21
2023-02-26T07:17:11.007Z,0.50
2023-02-26T07:22:33.219Z,0.57
2023-02-26T07:27:55.137Z,0.87
2023-02-26T07:33:16.997Z,1.08
2023-02-26T07:38:38.850Z,1.02
2023-02-26T07:44:00.697Z,1.23
2023-02-26T07:49:22.740Z,1.11
2023-02-26T07:54:44.569Z,1.24
2023-02-26T08:00:09.711Z,0.99
2023-02-26T08:05:31.691Z,1.14
2023-02-26T08:10:53.556Z,1.30
2023-02-26T08:16:15.519Z,1.71
2023-02-26T08:21:37.468Z,1.47
2023-02-26T08:26:59.546Z,1.58
2023-02-26T08:32:21.540Z,1.23
2023-02-26T08:37:43.389Z,1.33
2023-02-26T08:43:05.234Z,1.13
2023-02-26T08:48:27.409Z,0.94
2023-02-26T08:53:49.416Z,1.11
2023-02-26T08:59:11.290Z,0.97
2023-02-26T09:04:33.119Z,0.88
2023-02-26T09:09:55.159Z,0.85
2023-02-26T09:15:17.204Z,0.58
2023-02-26T09:20:39.166Z,0.89
2023-02-26T09:26:01.047Z,0.74
2023-02-26T09:31:23.399Z,0.91
2023-02-26T09:36:45.285Z,1.03
2023-02-26T09:42:38.148Z,1.00
2023-02-26T09:48:04.226Z,0.70
2023-02-26T09:53:29.503Z,0.97
2023-02-26T09:58:52.037Z,1.27
2023-02-26T10:04:20.778Z,1.17
2023-02-26T10:09:51.777Z,0.92
2023-02-26T10:15:25.837Z,1.12
2023-02-26T10:21:00.443Z,1.16
2023-02-26T10:26:34.955Z,1.00
2023-02-26T10:32:21.609Z,1.07
2023-02-26T10:37:56.289Z,1.21
2023-02-26T10:43:21.006Z,1.38
2023-02-26T10:48:55.004Z,1.06
2023-02-26T10:54:25.911Z,0.99
2023-02-26T10:59:47.820Z,1.39
2023-02-26T11:05:23.209Z,1.12
2023-02-26T11:10:53.439Z,1.23
2023-02-26T11:16:17.372Z,1.44
2023-02-26T11:21:43.369Z,2.00
2023-02-26T11:27:11.846Z,1.93
2023-02-26T11:32:36.919Z,2.16
2023-02-26T11:38:02.555Z,2.24
2023-02-26T11:43:33.582Z,2.19
2023-02-26T11:48:59.723Z,2.16
2023-02-26T11:54:28.382Z,1.83
2023-02-26T11:59:52.788Z,1.90
2023-02-26T12:05:17.098Z,1.72
2023-02-26T12:11:07.010Z,1.90
2023-02-26T12:16:41.302Z,2.07
2023-02-26T12:22:20.936Z,1.89
2023-02-26T12:27:59.507Z,1.92
2023-02-26T12:33:45.699Z,2.20
2023-02-26T12:39:31.686Z,2.08
2023-02-26T12:45:25.867Z,2.64
2023-02-26T12:51:08.395Z,2.52
2023-02-26T12:56:57.753Z,2.33
2023-02-26T13:02:47.296Z,2.51
2023-02-26T13:08:37.109Z,2.41
2023-02-26T13:14:37.687Z,2.10
2023-02-26T13:20:19.642Z,1.80
2023-02-26T13:25:48.012Z,2.23
2023-02-26T13:31:50.438Z,1.78
2023-02-26T13:37:21.849Z,1.87
2023-02-26T13:43:02.230Z,2.38
2023-02-26T13:48:37.134Z,2.10
2023-02-26T13:54:07.672Z,2.08
2023-02-26T13:59:36.498Z,2.05
2023-02-26T14:05:00.330Z,2.03
2023-02-26T14:10:26.662Z,2.23
2023-02-26T14:16:22.522Z,2.36
2023-02-26T14:21:52.423Z,2.37
2023-02-26T14:27:14.261Z,2.50
2023-02-26T14:32:47.068Z,2.24
2023-02-26T14:38:15.817Z,2.55
2023-02-26T14:43:43.514Z,2.36
2023-02-26T14:49:12.824Z,2.49
2023-02-26T14:55:10.719Z,2.15
2023-02-26T15:00:35.446Z,2.13
2023-02-26T15:06:03.599Z,2.26
2023-02-26T15:11:40.754Z,2.97
2023-02-26T15:17:17.515Z,2.56
2023-02-26T15:23:07.157Z,2.49
2023-02-26T15:28:39.385Z,2.57
2023-02-26T15:34:02.526Z,2.57
2023-02-26T15:39:25.694Z,2.34
2023-02-26T15:44:56.935Z,2.08
2023-02-26T15:50:19.463Z,2.09
2023-02-26T15:55:48.762Z,2.08
2023-02-26T16:01:19.438Z,1.98
2023-02-26T16:06:44.282Z,2.06
2023-02-26T16:12:19.886Z,1.80
2023-02-26T16:17:47.780Z,1.63
2023-02-26T16:23:17.885Z,1.57
2023-02-26T16:28:43.040Z,1.59
2023-02-26T16:34:22.889Z,1.72
2023-02-26T16:39:45.329Z,1.77
2023-02-26T16:45:42.527Z,1.64
2023-02-26T16:51:11.771Z,1.62
2023-02-26T16:56:41.107Z,1.74
2023-02-26T17:02:14.204Z,1.79
2023-02-26T17:07:46.022Z,1.84
2023-02-26T17:13:28.702Z,1.77
2023-02-26T17:18:50.925Z,1.79
2023-02-26T17:24:17.027Z,1.81
2023-02-26T17:29:41.884Z,1.86
2023-02-26T17:35:03.865Z,1.88
2023-02-26T17:40:33.388Z,2.00
2023-02-26T17:45:55.563Z,1.98
2023-02-26T17:51:18.008Z,1.98
2023-02-26T17:56:40.043Z,1.98
2023-02-26T18:02:02.075Z,1.84
2023-02-26T18:07:25.085Z,1.85
2023-02-26T18:12:47.129Z,1.66
2023-02-26T18:18:13.493Z,1.77
2023-02-26T18:23:35.393Z,1.18
2023-02-26T18:28:57.946Z,1.55
2023-02-26T18:34:19.853Z,1.58
2023-02-26T18:39:42.310Z,1.67
2023-02-26T18:45:04.561Z,1.75
2023-02-26T18:50:26.460Z,1.80
2023-02-26T18:55:52.783Z,1.79
2023-02-26T19:01:14.995Z,1.75
2023-02-26T19:06:37.247Z,1.61
2023-02-26T19:11:59.943Z,1.68
2023-02-26T19:17:22.778Z,1.60
2023-02-26T19:22:45.446Z,1.63
2023-02-26T19:28:07.386Z,1.70
2023-02-26T19:33:29.805Z,1.75
2023-02-26T19:38:52.096Z,1.70
2023-02-26T19:44:14.066Z,1.76
2023-02-26T19:49:36.110Z,1.79
2023-02-26T19:54:58.411Z,1.70
2023-02-26T20:00:20.513Z,1.76
2023-02-26T20:05:42.498Z,1.51
2023-02-26T20:11:04.805Z,1.58
2023-02-26T20:16:26.712Z,1.53
2023-02-26T20:21:48.659Z,1.75
2023-02-26T20:27:10.574Z,1.71
2023-02-26T20:32:32.614Z,1.79
2023-02-26T20:37:54.668Z,1.87
2023-02-26T20:43:16.958Z,1.82
2023-02-26T20:48:39.427Z,1.80
2023-02-26T20:54:01.327Z,1.79
2023-02-26T20:59:23.431Z,1.80
2023-02-26T21:04:45.397Z,1.76
2023-02-26T21:10:12.247Z,1.76
2023-02-26T21:15:34.517Z,1.73
2023-02-26T21:20:56.395Z,1.65
2023-02-26T21:26:18.305Z,1.70
2023-02-26T21:31:40.763Z,1.66
2023-02-26T21:37:05.250Z,1.88
2023-02-26T21:42:27.232Z,1.87
2023-02-26T21:47:49.178Z,1.86
2023-02-26T21:53:11.147Z,1.94
2023-02-26T21:58:32.983Z,1.94
2023-02-26T22:03:54.899Z,1.70
2023-02-26T22:09:16.945Z,1.82
2023-02-26T22:14:38.772Z,1.65
2023-02-26T22:20:00.609Z,1.74
2023-02-26T22:25:22.530Z,1.81
2023-02-26T22:30:44.633Z,1.68
2023-02-26T22:36:06.955Z,1.53
2023-02-26T22:41:28.811Z,1.64
2023-02-26T22:46:50.842Z,1.74
2023-02-26T22:52:12.869Z,1.67
2023-02-26T22:57:34.901Z,1.50
2023-02-26T23:02:56.753Z,1.49
2023-02-26T23:08:18.648Z,1.58
2023-02-26T23:13:40.633Z,1.71
2023-02-26T23:19:02.796Z,1.65
2023-02-26T23:24:24.769Z,1.71
2023-02-26T23:29:46.589Z,1.64
2023-02-26T23:35:08.813Z,1.69
2023-02-26T23:40:31.836Z,1.71
2023-02-26T23:45:53.742Z,1.62
2023-02-26T23:51:15.620Z,1.60
2023-02-26T23:56:37.632Z,1.55
